Wood Lake, North Dakota
Current Conditions -  °F | °C
As of 3:35 AM on Friday 31 Oct 2014 (Local Time) from KDVL Reporting Station
Clear Clear  
Wind Chill: -8°   Ceiling: Unl
Heat Index: -8°   Visibility: 10mi
Dew Point: -13°   Wind: 0mph
Humidity: 68%   Direction: NA
Pressure: 30.57"   Gusts: NA
Location:  47.9248°N, 98.8159°W
Report Text: KDVL 310835Z AUTO 00000KT 10SM CLR M08/M13 A3057 RMK AO1
Loading
Personal Weather Stations






























Interactive Weather Map
Tropical Storm Tracking
New forecast layout! Learn more

10-Day Weather Forecast

Advertisements
Track Severe Weather on mobile